This is the latest recevied weather packets stored in our database for station/object K1RTA-1. If no packets are shown the sender has not sent any weather packets the latest 1 day(s).
| Time | Temp. | Humidity | Pressure | Rain* | Wind** | Luminosity | Snow |
|---|---|---|---|---|---|---|---|
| 1777980985 | 13.33° C | 82% | 1013.7 hPa | 0 mm | 2.68 m/s, 215° | - | - |
| 1777980085 | 13.33° C | 83% | 1013.6 hPa | 0 mm | 2.68 m/s, 212° | - | - |
| 1777979184 | 12.78° C | 83% | 1013.7 hPa | 0 mm | 3.58 m/s, 218° | - | - |
| 1777978285 | 12.78° C | 84% | 1013.4 hPa | 0 mm | 2.68 m/s, 209° | - | - |
| 1777977384 | 12.22° C | 84% | 1013.5 hPa | 0 mm | 2.68 m/s, 206° | - | - |
| 1777976484 | 12.22° C | 84% | 1013.5 hPa | 0 mm | 2.24 m/s, 211° | - | - |
| 1777975585 | 12.22° C | 85% | 1013.4 hPa | 0 mm | 2.24 m/s, 210° | - | - |
| 1777974684 | 11.67° C | 85% | 1013.3 hPa | 0 mm | 2.24 m/s, 214° | - | - |
| 1777973784 | 11.67° C | 85% | 1013.3 hPa | 0 mm | 1.79 m/s, 213° | - | - |
| 1777972885 | 11.67° C | 86% | 1013.2 hPa | 0 mm | 2.24 m/s, 219° | - | - |
| 1777971984 | 11.67° C | 86% | 1013.2 hPa | 0 mm | 2.24 m/s, 219° | - | - |
| 1777971085 | 11.67° C | 86% | 1013.1 hPa | 0 mm | 2.24 m/s, 215° | - | - |
| 1777970184 | 12.22° C | 86% | 1013.2 hPa | 0 mm | 2.24 m/s, 216° | - | - |
| 1777969284 | 12.22° C | 85% | 1013.3 hPa | 0 mm | 2.24 m/s, 216° | - | - |
| 1777968384 | 12.22° C | 85% | 1013.3 hPa | 0 mm | 2.68 m/s, 221° | - | - |
| 1777967485 | 12.22° C | 85% | 1013.3 hPa | 0 mm | 2.68 m/s, 215° | - | - |
| 1777966584 | 12.22° C | 85% | 1013.3 hPa | 0 mm | 2.24 m/s, 212° | - | - |
| 1777965684 | 12.22° C | 85% | 1013.3 hPa | 0 mm | 2.24 m/s, 213° | - | - |
| 1777964785 | 12.22° C | 85% | 1013.4 hPa | 0 mm | 2.68 m/s, 219° | - | - |
| 1777963884 | 12.22° C | 85% | 1013.4 hPa | 0 mm | 2.24 m/s, 219° | - | - |
| 1777962985 | 12.22° C | 85% | 1013.4 hPa | 0 mm | 2.24 m/s, 217° | - | - |
| 1777962086 | 12.22° C | 85% | 1013.3 hPa | 0 mm | 2.24 m/s, 218° | - | - |
| 1777961184 | 12.22° C | 84% | 1013.3 hPa | 0 mm | 2.68 m/s, 218° | - | - |
* Rain latest hour (hover to see other rain measurements)
** Current wind speed in m/s (hover to see current wind gust speed)